sensor_id;sensor_type;location;lat;lon;timestamp;pressure;altitude;pressure_sealevel;temperature;humidity
31775;BME280;66189;49.000;11.640;2023-02-14T00:00:27;97836.84;;;0.69;86.42
31775;BME280;66189;49.000;11.640;2023-02-14T00:02:27;97836.34;;;0.72;86.93
31775;BME280;66189;49.000;11.640;2023-02-14T00:04:28;97833.56;;;0.84;86.72
31775;BME280;66189;49.000;11.640;2023-02-14T00:06:31;97829.94;;;0.90;86.63
31775;BME280;66189;49.000;11.640;2023-02-14T00:08:34;97822.97;;;0.62;86.87
31775;BME280;66189;49.000;11.640;2023-02-14T00:10:35;97819.41;;;0.73;86.57
31775;BME280;66189;49.000;11.640;2023-02-14T00:12:36;97817.16;;;0.65;87.11
31775;BME280;66189;49.000;11.640;2023-02-14T00:14:36;97823.28;;;0.65;87.50
31775;BME280;66189;49.000;11.640;2023-02-14T00:16:55;97821.69;;;0.64;87.43
31775;BME280;66189;49.000;11.640;2023-02-14T00:18:56;97816.06;;;0.61;87.26
31775;BME280;66189;49.000;11.640;2023-02-14T00:21:02;97820.19;;;0.74;87.17
31775;BME280;66189;49.000;11.640;2023-02-14T00:23:03;97826.84;;;0.76;87.11
31775;BME280;66189;49.000;11.640;2023-02-14T00:25:04;97826.66;;;0.61;87.18
31775;BME280;66189;49.000;11.640;2023-02-14T00:27:04;97818.41;;;0.57;87.88
31775;BME280;66189;49.000;11.640;2023-02-14T00:29:06;97826.44;;;0.62;87.63
31775;BME280;66189;49.000;11.640;2023-02-14T00:31:08;97825.59;;;0.62;87.96
31775;BME280;66189;49.000;11.640;2023-02-14T00:33:08;97820.00;;;0.58;87.87
31775;BME280;66189;49.000;11.640;2023-02-14T00:35:09;97825.00;;;0.77;86.82
31775;BME280;66189;49.000;11.640;2023-02-14T00:37:09;97831.72;;;0.62;86.97
31775;BME280;66189;49.000;11.640;2023-02-14T00:39:12;97827.22;;;0.63;87.34
31775;BME280;66189;49.000;11.640;2023-02-14T00:41:12;97821.31;;;0.56;87.71
31775;BME280;66189;49.000;11.640;2023-02-14T00:43:18;97824.81;;;0.61;87.37
31775;BME280;66189;49.000;11.640;2023-02-14T00:45:18;97822.22;;;0.66;87.36
31775;BME280;66189;49.000;11.640;2023-02-14T00:47:19;97827.38;;;0.56;87.56
31775;BME280;66189;49.000;11.640;2023-02-14T00:49:20;97819.78;;;0.60;87.71
31775;BME280;66189;49.000;11.640;2023-02-14T00:51:21;97823.47;;;0.59;87.82
31775;BME280;66189;49.000;11.640;2023-02-14T00:53:23;97821.59;;;0.59;87.63
31775;BME280;66189;49.000;11.640;2023-02-14T00:55:24;97829.63;;;0.64;88.03
31775;BME280;66189;49.000;11.640;2023-02-14T00:57:24;97833.50;;;0.57;87.97
31775;BME280;66189;49.000;11.640;2023-02-14T00:59:24;97836.34;;;0.72;87.75
31775;BME280;66189;49.000;11.640;2023-02-14T01:01:25;97843.25;;;0.73;86.62
31775;BME280;66189;49.000;11.640;2023-02-14T01:03:26;97845.31;;;0.71;86.98
31775;BME280;66189;49.000;11.640;2023-02-14T01:05:26;97844.22;;;0.67;87.18
31775;BME280;66189;49.000;11.640;2023-02-14T01:07:27;97845.03;;;0.67;87.49
31775;BME280;66189;49.000;11.640;2023-02-14T01:09:27;97857.75;;;0.48;87.52
31775;BME280;66189;49.000;11.640;2023-02-14T01:11:28;97847.28;;;0.59;87.76
31775;BME280;66189;49.000;11.640;2023-02-14T01:13:28;97855.25;;;0.59;87.83
31775;BME280;66189;49.000;11.640;2023-02-14T01:15:29;97856.75;;;0.55;88.07
31775;BME280;66189;49.000;11.640;2023-02-14T01:17:30;97856.06;;;0.42;88.36
31775;BME280;66189;49.000;11.640;2023-02-14T01:19:30;97853.19;;;0.44;88.13
31775;BME280;66189;49.000;11.640;2023-02-14T01:21:32;97851.41;;;0.49;88.28
31775;BME280;66189;49.000;11.640;2023-02-14T01:23:33;97846.66;;;0.51;87.84
31775;BME280;66189;49.000;11.640;2023-02-14T01:25:36;97850.88;;;0.47;87.97
31775;BME280;66189;49.000;11.640;2023-02-14T01:27:37;97842.03;;;0.42;88.59
31775;BME280;66189;49.000;11.640;2023-02-14T01:29:37;97844.88;;;0.57;88.02
31775;BME280;66189;49.000;11.640;2023-02-14T01:31:38;97840.09;;;0.76;87.28
31775;BME280;66189;49.000;11.640;2023-02-14T01:33:40;97839.44;;;0.64;87.53
31775;BME280;66189;49.000;11.640;2023-02-14T01:35:40;97838.31;;;0.60;87.73
31775;BME280;66189;49.000;11.640;2023-02-14T01:37:41;97849.41;;;0.57;87.65
31775;BME280;66189;49.000;11.640;2023-02-14T01:39:42;97847.03;;;0.60;87.61
31775;BME280;66189;49.000;11.640;2023-02-14T01:41:43;97848.66;;;0.61;87.45
31775;BME280;66189;49.000;11.640;2023-02-14T01:45:50;97843.53;;;0.55;88.40
31775;BME280;66189;49.000;11.640;2023-02-14T01:47:53;97834.34;;;0.40;88.67
31775;BME280;66189;49.000;11.640;2023-02-14T01:50:08;97833.31;;;0.41;88.43
31775;BME280;66189;49.000;11.640;2023-02-14T01:52:17;97831.81;;;0.73;87.30
31775;BME280;66189;49.000;11.640;2023-02-14T01:54:22;97828.25;;;0.62;87.00
31775;BME280;66189;49.000;11.640;2023-02-14T01:56:28;97839.28;;;0.53;88.05
31775;BME280;66189;49.000;11.640;2023-02-14T01:58:31;97827.28;;;0.68;87.80
31775;BME280;66189;49.000;11.640;2023-02-14T02:00:36;97831.72;;;0.62;87.03
31775;BME280;66189;49.000;11.640;2023-02-14T02:02:57;97830.28;;;0.55;87.86
31775;BME280;66189;49.000;11.640;2023-02-14T02:04:59;97835.66;;;0.60;88.06
31775;BME280;66189;49.000;11.640;2023-02-14T02:07:04;97829.25;;;0.56;87.85
31775;BME280;66189;49.000;11.640;2023-02-14T02:11:10;97826.09;;;0.59;87.42
31775;BME280;66189;49.000;11.640;2023-02-14T02:13:17;97828.84;;;0.64;87.54
31775;BME280;66189;49.000;11.640;2023-02-14T02:15:19;97821.25;;;0.50;87.20
31775;BME280;66189;49.000;11.640;2023-02-14T02:36:42;97840.28;;;0.47;88.31
31775;BME280;66189;49.000;11.640;2023-02-14T02:44:15;97825.84;;;0.60;88.36
31775;BME280;66189;49.000;11.640;2023-02-14T02:46:34;97828.44;;;0.55;87.95
31775;BME280;66189;49.000;11.640;2023-02-14T02:51:53;97826.72;;;0.44;88.57
31775;BME280;66189;49.000;11.640;2023-02-14T02:54:22;97826.72;;;0.44;89.05
31775;BME280;66189;49.000;11.640;2023-02-14T02:56:31;97821.50;;;0.49;88.72
31775;BME280;66189;49.000;11.640;2023-02-14T02:58:51;97830.72;;;0.46;88.67
31775;BME280;66189;49.000;11.640;2023-02-14T03:00:54;97830.97;;;0.45;89.01
31775;BME280;66189;49.000;11.640;2023-02-14T03:02:56;97830.66;;;0.41;89.03
31775;BME280;66189;49.000;11.640;2023-02-14T03:05:16;97825.19;;;0.48;88.83
31775;BME280;66189;49.000;11.640;2023-02-14T03:07:16;97817.22;;;0.48;88.37
31775;BME280;66189;49.000;11.640;2023-02-14T03:11:58;97810.03;;;0.43;88.36
31775;BME280;66189;49.000;11.640;2023-02-14T03:14:33;97809.00;;;0.44;88.38
31775;BME280;66189;49.000;11.640;2023-02-14T03:16:44;97806.16;;;0.51;88.81
31775;BME280;66189;49.000;11.640;2023-02-14T03:26:43;97809.00;;;0.44;88.72
31775;BME280;66189;49.000;11.640;2023-02-14T03:30:56;97803.69;;;0.44;88.22
31775;BME280;66189;49.000;11.640;2023-02-14T03:33:05;97806.09;;;0.46;88.61
31775;BME280;66189;49.000;11.640;2023-02-14T03:42:03;97807.38;;;0.43;88.08
31775;BME280;66189;49.000;11.640;2023-02-14T03:44:08;97802.50;;;0.57;87.81
31775;BME280;66189;49.000;11.640;2023-02-14T03:46:19;97809.78;;;0.45;88.55
31775;BME280;66189;49.000;11.640;2023-02-14T03:48:24;97808.50;;;0.47;88.48
31775;BME280;66189;49.000;11.640;2023-02-14T03:50:27;97801.84;;;0.45;88.59
31775;BME280;66189;49.000;11.640;2023-02-14T03:52:29;97806.94;;;0.29;88.62
31775;BME280;66189;49.000;11.640;2023-02-14T03:54:32;97797.72;;;0.32;88.96
31775;BME280;66189;49.000;11.640;2023-02-14T03:56:45;97809.34;;;0.31;89.31
31775;BME280;66189;49.000;11.640;2023-02-14T03:58:49;97808.16;;;0.22;89.47
31775;BME280;66189;49.000;11.640;2023-02-14T04:00:55;97805.03;;;0.25;89.12
31775;BME280;66189;49.000;11.640;2023-02-14T04:03:02;97806.00;;;0.19;89.69
31775;BME280;66189;49.000;11.640;2023-02-14T04:05:11;97812.59;;;0.16;89.74
31775;BME280;66189;49.000;11.640;2023-02-14T04:07:17;97818.66;;;0.16;89.39
31775;BME280;66189;49.000;11.640;2023-02-14T04:09:18;97806.84;;;0.24;89.74
31775;BME280;66189;49.000;11.640;2023-02-14T04:11:19;97807.09;;;0.23;89.31
31775;BME280;66189;49.000;11.640;2023-02-14T04:13:20;97803.38;;;0.41;89.40
31775;BME280;66189;49.000;11.640;2023-02-14T04:15:20;97811.41;;;0.29;89.46
31775;BME280;66189;49.000;11.640;2023-02-14T04:17:20;97805.38;;;0.11;89.38
31775;BME280;66189;49.000;11.640;2023-02-14T04:19:39;97806.41;;;0.10;89.67
31775;BME280;66189;49.000;11.640;2023-02-14T04:21:40;97805.22;;;0.01;90.16
31775;BME280;66189;49.000;11.640;2023-02-14T04:23:40;97810.28;;;0.03;89.97
31775;BME280;66189;49.000;11.640;2023-02-14T04:25:41;97797.03;;;0.03;90.35
31775;BME280;66189;49.000;11.640;2023-02-14T04:27:42;97805.38;;;0.11;90.63
31775;BME280;66189;49.000;11.640;2023-02-14T04:29:48;97793.03;;;0.17;90.36
31775;BME280;66189;49.000;11.640;2023-02-14T04:31:48;97795.47;;;0.24;90.10
31775;BME280;66189;49.000;11.640;2023-02-14T04:33:49;97802.13;;;0.26;89.42
31775;BME280;66189;49.000;11.640;2023-02-14T04:35:50;97799.84;;;0.13;89.50
31775;BME280;66189;49.000;11.640;2023-02-14T04:37:51;97802.00;;;0.16;89.80
31775;BME280;66189;49.000;11.640;2023-02-14T04:39:51;97806.16;;;0.12;89.49
31775;BME280;66189;49.000;11.640;2023-02-14T04:41:52;97804.25;;;0.07;89.97
31775;BME280;66189;49.000;11.640;2023-02-14T04:43:52;97807.31;;;-0.01;90.21
31775;BME280;66189;49.000;11.640;2023-02-14T04:45:53;97806.03;;;0.02;89.90
31775;BME280;66189;49.000;11.640;2023-02-14T04:47:53;97804.34;;;0.12;90.12
31775;BME280;66189;49.000;11.640;2023-02-14T04:49:53;97812.41;;;0.23;89.77
31775;BME280;66189;49.000;11.640;2023-02-14T04:51:54;97804.16;;;0.19;89.39
31775;BME280;66189;49.000;11.640;2023-02-14T04:53:54;97803.59;;;0.17;89.51
31775;BME280;66189;49.000;11.640;2023-02-14T04:55:55;97803.66;;;0.00;89.99
31775;BME280;66189;49.000;11.640;2023-02-14T04:57:55;97800.63;;;0.13;90.40
31775;BME280;66189;49.000;11.640;2023-02-14T04:59:56;97800.13;;;0.16;90.00
31775;BME280;66189;49.000;11.640;2023-02-14T05:01:56;97791.84;;;0.08;90.00
31775;BME280;66189;49.000;11.640;2023-02-14T05:03:57;97797.22;;;-0.04;90.35
31775;BME280;66189;49.000;11.640;2023-02-14T05:05:57;97791.41;;;0.16;89.76
31775;BME280;66189;49.000;11.640;2023-02-14T05:07:57;97785.72;;;0.07;90.01
31775;BME280;66189;49.000;11.640;2023-02-14T05:09:58;97790.13;;;0.19;89.88
31775;BME280;66189;49.000;11.640;2023-02-14T05:11:58;97783.09;;;0.07;90.09
31775;BME280;66189;49.000;11.640;2023-02-14T05:13:59;97784.69;;;0.08;89.88
31775;BME280;66189;49.000;11.640;2023-02-14T05:15:59;97782.59;;;0.10;90.26
31775;BME280;66189;49.000;11.640;2023-02-14T05:18:00;97788.28;;;0.19;89.88
31775;BME280;66189;49.000;11.640;2023-02-14T05:20:03;97783.53;;;0.21;89.60
31775;BME280;66189;49.000;11.640;2023-02-14T05:22:05;97782.88;;;0.31;89.41
31775;BME280;66189;49.000;11.640;2023-02-14T05:24:05;97789.97;;;0.08;89.48
31775;BME280;66189;49.000;11.640;2023-02-14T05:26:06;97779.09;;;0.05;90.23
31775;BME280;66189;49.000;11.640;2023-02-14T05:28:06;97778.75;;;0.01;90.10
31775;BME280;66189;49.000;11.640;2023-02-14T05:30:07;97766.34;;;0.02;90.75
31775;BME280;66189;49.000;11.640;2023-02-14T05:32:09;97770.81;;;0.01;90.83
31775;BME280;66189;49.000;11.640;2023-02-14T05:34:09;97767.84;;;0.14;90.18
31775;BME280;66189;49.000;11.640;2023-02-14T05:36:09;97772.50;;;0.07;90.21
31775;BME280;66189;49.000;11.640;2023-02-14T05:38:10;97774.66;;;0.10;90.61
31775;BME280;66189;49.000;11.640;2023-02-14T05:40:12;97768.19;;;0.01;90.08
31775;BME280;66189;49.000;11.640;2023-02-14T05:42:14;97771.06;;;-0.01;90.32
31775;BME280;66189;49.000;11.640;2023-02-14T05:44:14;97773.31;;;0.08;90.35
31775;BME280;66189;49.000;11.640;2023-02-14T05:46:15;97775.25;;;-0.05;90.19
31775;BME280;66189;49.000;11.640;2023-02-14T05:48:15;97774.59;;;0.05;89.94
31775;BME280;66189;49.000;11.640;2023-02-14T05:50:17;97776.69;;;0.03;89.91
31775;BME280;66189;49.000;11.640;2023-02-14T05:52:18;97776.47;;;-0.12;89.38
31775;BME280;66189;49.000;11.640;2023-02-14T05:54:18;97779.97;;;-0.07;90.27
31775;BME280;66189;49.000;11.640;2023-02-14T05:56:18;97783.59;;;-0.13;89.79
31775;BME280;66189;49.000;11.640;2023-02-14T05:58:19;97784.25;;;-0.23;90.51
31775;BME280;66189;49.000;11.640;2023-02-14T06:00:20;97783.28;;;-0.16;90.70
31775;BME280;66189;49.000;11.640;2023-02-14T06:02:21;97781.50;;;0.06;90.47
31775;BME280;66189;49.000;11.640;2023-02-14T06:04:21;97781.53;;;-0.28;90.40
31775;BME280;66189;49.000;11.640;2023-02-14T06:06:22;97785.53;;;-0.25;90.79
31775;BME280;66189;49.000;11.640;2023-02-14T06:08:22;97784.41;;;-0.29;90.86
31775;BME280;66189;49.000;11.640;2023-02-14T06:10:24;97783.78;;;-0.37;90.64
31775;BME280;66189;49.000;11.640;2023-02-14T06:12:25;97786.91;;;-0.23;91.14
31775;BME280;66189;49.000;11.640;2023-02-14T06:14:25;97783.94;;;-0.43;91.54
31775;BME280;66189;49.000;11.640;2023-02-14T06:16:26;97782.34;;;-0.27;91.29
31775;BME280;66189;49.000;11.640;2023-02-14T06:18:26;97789.41;;;-0.33;91.63
31775;BME280;66189;49.000;11.640;2023-02-14T06:20:28;97788.25;;;-0.37;91.78
31775;BME280;66189;49.000;11.640;2023-02-14T06:22:29;97791.16;;;-0.39;91.82
31775;BME280;66189;49.000;11.640;2023-02-14T06:24:30;97799.50;;;-0.30;92.05
31775;BME280;66189;49.000;11.640;2023-02-14T06:26:30;97796.44;;;-0.39;92.04
31775;BME280;66189;49.000;11.640;2023-02-14T06:28:30;97801.09;;;-0.12;91.56
31775;BME280;66189;49.000;11.640;2023-02-14T06:30:31;97798.47;;;-0.29;91.33
31775;BME280;66189;49.000;11.640;2023-02-14T06:32:31;97801.41;;;-0.25;91.53
31775;BME280;66189;49.000;11.640;2023-02-14T06:34:32;97795.47;;;-0.32;91.16
31775;BME280;66189;49.000;11.640;2023-02-14T06:36:33;97799.16;;;-0.33;91.81
31775;BME280;66189;49.000;11.640;2023-02-14T06:38:35;97799.88;;;-0.38;91.72
31775;BME280;66189;49.000;11.640;2023-02-14T06:40:35;97809.66;;;-0.39;91.96
31775;BME280;66189;49.000;11.640;2023-02-14T06:42:36;97801.09;;;-0.29;91.81
31775;BME280;66189;49.000;11.640;2023-02-14T06:44:37;97804.13;;;-0.37;92.23
31775;BME280;66189;49.000;11.640;2023-02-14T06:46:37;97800.13;;;-0.40;92.26
31775;BME280;66189;49.000;11.640;2023-02-14T06:48:38;97803.47;;;-0.44;91.96
31775;BME280;66189;49.000;11.640;2023-02-14T06:50:38;97798.84;;;-0.37;92.04
31775;BME280;66189;49.000;11.640;2023-02-14T06:52:39;97803.47;;;-0.44;92.13
31775;BME280;66189;49.000;11.640;2023-02-14T06:54:42;97802.44;;;-0.43;92.16
31775;BME280;66189;49.000;11.640;2023-02-14T06:56:42;97805.66;;;-0.41;92.01
31775;BME280;66189;49.000;11.640;2023-02-14T06:58:43;97810.78;;;-0.51;92.14
31775;BME280;66189;49.000;11.640;2023-02-14T07:00:43;97802.94;;;-0.46;92.19
31775;BME280;66189;49.000;11.640;2023-02-14T07:02:43;97807.31;;;-0.52;92.24
31775;BME280;66189;49.000;11.640;2023-02-14T07:04:44;97799.75;;;-0.48;92.15
31775;BME280;66189;49.000;11.640;2023-02-14T07:06:44;97800.47;;;-0.53;92.10
31775;BME280;66189;49.000;11.640;2023-02-14T07:08:45;97801.19;;;-0.41;92.31
31775;BME280;66189;49.000;11.640;2023-02-14T07:10:46;97798.06;;;-0.55;91.98
31775;BME280;66189;49.000;11.640;2023-02-14T07:12:46;97802.75;;;-0.57;91.97
31775;BME280;66189;49.000;11.640;2023-02-14T07:14:46;97796.44;;;-0.56;92.45
31775;BME280;66189;49.000;11.640;2023-02-14T07:16:47;97793.50;;;-0.59;92.39
31775;BME280;66189;49.000;11.640;2023-02-14T07:18:47;97798.19;;;-0.61;92.61
31775;BME280;66189;49.000;11.640;2023-02-14T07:20:49;97797.16;;;-0.43;92.32
31775;BME280;66189;49.000;11.640;2023-02-14T07:22:49;97792.84;;;-0.49;92.56
31775;BME280;66189;49.000;11.640;2023-02-14T07:24:50;97786.34;;;-0.59;92.43
31775;BME280;66189;49.000;11.640;2023-02-14T07:26:50;97786.34;;;-0.59;92.76
31775;BME280;66189;49.000;11.640;2023-02-14T07:28:51;97778.41;;;-0.59;92.63
31775;BME280;66189;49.000;11.640;2023-02-14T07:30:51;97783.78;;;-0.37;92.40
31775;BME280;66189;49.000;11.640;2023-02-14T07:32:52;97774.50;;;-0.39;91.87
31775;BME280;66189;49.000;11.640;2023-02-14T07:34:53;97771.03;;;-0.40;91.76
31775;BME280;66189;49.000;11.640;2023-02-14T07:36:53;97766.72;;;-0.29;91.64
31775;BME280;66189;49.000;11.640;2023-02-14T07:38:56;97769.22;;;-0.39;90.86
31775;BME280;66189;49.000;11.640;2023-02-14T07:40:57;97766.31;;;-0.38;91.08
31775;BME280;66189;49.000;11.640;2023-02-14T07:42:58;97771.91;;;-0.34;91.03
31775;BME280;66189;49.000;11.640;2023-02-14T07:44:59;97769.28;;;-0.34;91.42
31775;BME280;66189;49.000;11.640;2023-02-14T07:47:00;97764.22;;;-0.36;91.40
31775;BME280;66189;49.000;11.640;2023-02-14T07:49:00;97770.16;;;-0.28;91.59
31775;BME280;66189;49.000;11.640;2023-02-14T07:51:01;97769.19;;;-0.22;91.37
31775;BME280;66189;49.000;11.640;2023-02-14T07:53:02;97771.53;;;-0.26;90.71
31775;BME280;66189;49.000;11.640;2023-02-14T07:55:02;97773.50;;;-0.16;90.64
31775;BME280;66189;49.000;11.640;2023-02-14T07:57:04;97768.25;;;-0.33;90.25
31775;BME280;66189;49.000;11.640;2023-02-14T07:59:04;97775.34;;;-0.33;90.54
31775;BME280;66189;49.000;11.640;2023-02-14T08:01:05;97776.25;;;-0.28;90.86
31775;BME280;66189;49.000;11.640;2023-02-14T08:03:05;97773.53;;;-0.33;90.73
31775;BME280;66189;49.000;11.640;2023-02-14T08:05:06;97771.75;;;-0.10;90.42
31775;BME280;66189;49.000;11.640;2023-02-14T08:07:07;97773.28;;;-0.31;90.08
31775;BME280;66189;49.000;11.640;2023-02-14T08:09:08;97772.34;;;-0.42;90.09
31775;BME280;66189;49.000;11.640;2023-02-14T08:11:23;97776.66;;;-0.36;90.21
31775;BME280;66189;49.000;11.640;2023-02-14T08:13:42;97770.94;;;-0.28;90.67
31775;BME280;66189;49.000;11.640;2023-02-14T08:15:43;97780.88;;;-0.35;90.42
31775;BME280;66189;49.000;11.640;2023-02-14T08:18:02;97776.25;;;-0.28;89.84
31775;BME280;66189;49.000;11.640;2023-02-14T08:20:03;97779.78;;;-0.39;89.34
31775;BME280;66189;49.000;11.640;2023-02-14T08:22:04;97772.72;;;-0.50;90.40
31775;BME280;66189;49.000;11.640;2023-02-14T08:24:05;97770.25;;;-0.57;90.99
31775;BME280;66189;49.000;11.640;2023-02-14T08:26:06;97776.56;;;-0.41;91.08
31775;BME280;66189;49.000;11.640;2023-02-14T08:28:07;97769.13;;;-0.27;90.55
31775;BME280;66189;49.000;11.640;2023-02-14T08:30:08;97773.53;;;-0.50;90.39
31775;BME280;66189;49.000;11.640;2023-02-14T08:32:08;97771.91;;;-0.34;90.11
31775;BME280;66189;49.000;11.640;2023-02-14T08:34:08;97768.63;;;-0.41;90.36
31775;BME280;66189;49.000;11.640;2023-02-14T08:36:09;97761.34;;;-0.51;90.64
31775;BME280;66189;49.000;11.640;2023-02-14T08:38:09;97762.06;;;-0.56;90.62
31775;BME280;66189;49.000;11.640;2023-02-14T08:40:12;97758.31;;;-0.60;90.57
31775;BME280;66189;49.000;11.640;2023-02-14T08:42:13;97763.09;;;-0.57;90.69
31775;BME280;66189;49.000;11.640;2023-02-14T08:44:13;97763.75;;;-0.49;91.37
31775;BME280;66189;49.000;11.640;2023-02-14T08:46:15;97768.00;;;-0.48;91.20
31775;BME280;66189;49.000;11.640;2023-02-14T08:48:16;97774.75;;;-0.58;91.01
31775;BME280;66189;49.000;11.640;2023-02-14T08:50:17;97770.31;;;-0.52;91.59
31775;BME280;66189;49.000;11.640;2023-02-14T08:52:18;97770.16;;;-0.45;91.46
31775;BME280;66189;49.000;11.640;2023-02-14T08:54:18;97770.25;;;-0.40;91.58
31775;BME280;66189;49.000;11.640;2023-02-14T08:56:18;97772.09;;;-0.41;91.45
31775;BME280;66189;49.000;11.640;2023-02-14T08:58:21;97776.25;;;-0.28;91.35
31775;BME280;66189;49.000;11.640;2023-02-14T09:00:22;97772.06;;;-0.24;89.87
31775;BME280;66189;49.000;11.640;2023-02-14T09:02:23;97780.50;;;-0.44;90.26
31775;BME280;66189;49.000;11.640;2023-02-14T09:04:23;97772.09;;;-0.41;90.11
31775;BME280;66189;49.000;11.640;2023-02-14T09:06:23;97768.53;;;-0.29;89.60
31775;BME280;66189;49.000;11.640;2023-02-14T09:08:24;97774.16;;;-0.26;89.22
31775;BME280;66189;49.000;11.640;2023-02-14T09:10:25;97769.13;;;-0.27;88.89
31775;BME280;66189;49.000;11.640;2023-02-14T09:12:25;97769.69;;;-0.42;89.30
31775;BME280;66189;49.000;11.640;2023-02-14T09:14:26;97775.19;;;-0.27;89.72
31775;BME280;66189;49.000;11.640;2023-02-14T09:16:26;97767.75;;;-0.30;89.62
31775;BME280;66189;49.000;11.640;2023-02-14T09:18:27;97770.88;;;-0.33;88.72
31775;BME280;66189;49.000;11.640;2023-02-14T09:20:27;97768.88;;;-0.43;89.52
31775;BME280;66189;49.000;11.640;2023-02-14T09:22:27;97772.88;;;-0.40;90.14
31775;BME280;66189;49.000;11.640;2023-02-14T09:24:29;97772.09;;;-0.41;90.36
31775;BME280;66189;49.000;11.640;2023-02-14T09:26:30;97774.00;;;-0.36;90.65
31775;BME280;66189;49.000;11.640;2023-02-14T09:28:31;97771.78;;;-0.27;90.90
31775;BME280;66189;49.000;11.640;2023-02-14T09:30:31;97758.59;;;-0.22;90.78
31775;BME280;66189;49.000;11.640;2023-02-14T09:32:32;97764.28;;;-0.13;90.54
31775;BME280;66189;49.000;11.640;2023-02-14T09:34:33;97769.25;;;0.00;90.42
31775;BME280;66189;49.000;11.640;2023-02-14T09:36:53;97763.91;;;0.17;88.69
31775;BME280;66189;49.000;11.640;2023-02-14T09:39:12;97766.53;;;-0.22;88.68
31775;BME280;66189;49.000;11.640;2023-02-14T09:45:57;97769.25;;;-0.17;89.96
31775;BME280;66189;49.000;11.640;2023-02-14T09:48:38;97765.38;;;-0.09;89.59
31775;BME280;66189;49.000;11.640;2023-02-14T09:51:14;97762.38;;;-0.18;89.21
31775;BME280;66189;49.000;11.640;2023-02-14T09:53:27;97760.03;;;-0.14;88.73
31775;BME280;66189;49.000;11.640;2023-02-14T09:55:43;97768.53;;;-0.12;88.53
31775;BME280;66189;49.000;11.640;2023-02-14T10:00:10;97764.34;;;-0.08;88.70
31775;BME280;66189;49.000;11.640;2023-02-14T10:04:34;97755.16;;;0.16;89.40
31775;BME280;66189;49.000;11.640;2023-02-14T10:08:49;97763.22;;;0.05;89.09
31775;BME280;66189;49.000;11.640;2023-02-14T10:11:06;97763.81;;;0.12;89.35
31775;BME280;66189;49.000;11.640;2023-02-14T10:13:32;97760.28;;;0.23;89.56
31775;BME280;66189;49.000;11.640;2023-02-14T10:15:41;97758.13;;;0.20;88.44
31775;BME280;66189;49.000;11.640;2023-02-14T10:17:58;97758.72;;;0.27;88.37
31775;BME280;66189;49.000;11.640;2023-02-14T10:20:02;97764.34;;;0.31;88.74
31775;BME280;66189;49.000;11.640;2023-02-14T10:22:13;97767.78;;;0.31;87.64
31775;BME280;66189;49.000;11.640;2023-02-14T10:24:17;97768.16;;;0.40;87.47
31775;BME280;66189;49.000;11.640;2023-02-14T10:28:34;97765.75;;;0.39;86.92
31775;BME280;66189;49.000;11.640;2023-02-14T10:30:38;97763.59;;;0.35;87.33
31775;BME280;66189;49.000;11.640;2023-02-14T10:36:00;97754.34;;;0.16;87.42
31775;BME280;66189;49.000;11.640;2023-02-14T10:44:56;97747.66;;;0.08;87.54
31775;BME280;66189;49.000;11.640;2023-02-14T10:47:37;97746.09;;;0.34;88.62
31775;BME280;66189;49.000;11.640;2023-02-14T10:50:10;97744.31;;;0.40;86.88
31775;BME280;66189;49.000;11.640;2023-02-14T10:52:24;97742.13;;;0.32;86.77
31775;BME280;66189;49.000;11.640;2023-02-14T10:54:53;97742.13;;;0.32;87.14
31775;BME280;66189;49.000;11.640;2023-02-14T10:57:01;97734.72;;;0.34;86.90
31775;BME280;66189;49.000;11.640;2023-02-14T10:59:47;97734.66;;;0.51;86.62
31775;BME280;66189;49.000;11.640;2023-02-14T11:01:38;97726.16;;;0.49;87.03
31775;BME280;66189;49.000;11.640;2023-02-14T11:03:41;97736.88;;;0.37;86.24
31775;BME280;66189;49.000;11.640;2023-02-14T11:05:48;97735.94;;;0.48;86.90
31775;BME280;66189;49.000;11.640;2023-02-14T11:07:49;97734.44;;;0.58;85.82
31775;BME280;66189;49.000;11.640;2023-02-14T11:09:50;97738.34;;;0.50;87.00
31775;BME280;66189;49.000;11.640;2023-02-14T11:11:53;97734.28;;;0.64;86.51
31775;BME280;66189;49.000;11.640;2023-02-14T11:13:55;97734.06;;;0.71;85.13
31775;BME280;66189;49.000;11.640;2023-02-14T11:16:04;97735.28;;;0.58;84.97
31775;BME280;66189;49.000;11.640;2023-02-14T11:18:22;97736.91;;;0.64;85.63
31775;BME280;66189;49.000;11.640;2023-02-14T11:20:27;97727.88;;;0.60;84.46
31775;BME280;66189;49.000;11.640;2023-02-14T11:22:31;97722.31;;;0.62;85.21
31775;BME280;66189;49.000;11.640;2023-02-14T11:24:38;97727.56;;;0.57;85.51
31775;BME280;66189;49.000;11.640;2023-02-14T11:26:45;97719.00;;;0.49;85.94
31775;BME280;66189;49.000;11.640;2023-02-14T11:28:51;97717.41;;;0.48;86.26
31775;BME280;66189;49.000;11.640;2023-02-14T11:30:52;97716.66;;;0.53;86.16
31775;BME280;66189;49.000;11.640;2023-02-14T11:32:53;97717.59;;;0.64;86.42
31775;BME280;66189;49.000;11.640;2023-02-14T11:36:59;97716.66;;;0.80;85.81
31775;BME280;66189;49.000;11.640;2023-02-14T11:39:05;97714.28;;;0.79;85.41
31775;BME280;66189;49.000;11.640;2023-02-14T11:41:10;97711.97;;;0.87;85.58
31775;BME280;66189;49.000;11.640;2023-02-14T11:45:35;97706.97;;;0.91;85.84
31775;BME280;66189;49.000;11.640;2023-02-14T11:47:35;97703.00;;;0.88;85.38
31775;BME280;66189;49.000;11.640;2023-02-14T11:49:53;97703.75;;;0.84;85.56
31775;BME280;66189;49.000;11.640;2023-02-14T11:51:55;97701.38;;;0.87;85.23
31775;BME280;66189;49.000;11.640;2023-02-14T11:53:58;97698.75;;;0.93;85.44
31775;BME280;66189;49.000;11.640;2023-02-14T11:56:02;97690.81;;;0.93;85.03
31775;BME280;66189;49.000;11.640;2023-02-14T11:58:04;97690.97;;;1.08;84.48
31775;BME280;66189;49.000;11.640;2023-02-14T12:00:18;97681.53;;;1.22;83.94
31775;BME280;66189;49.000;11.640;2023-02-14T12:04:34;97678.84;;;1.17;83.24
31775;BME280;66189;49.000;11.640;2023-02-14T12:06:36;97676.44;;;1.16;83.69
31775;BME280;66189;49.000;11.640;2023-02-14T12:08:37;97674.16;;;1.30;83.69
31775;BME280;66189;49.000;11.640;2023-02-14T12:10:41;97671.59;;;1.40;84.63
31775;BME280;66189;49.000;11.640;2023-02-14T12:17:29;97663.13;;;1.43;82.12